createdAt,value
2023-02-09T00:01:24.447Z,34.65
2023-02-09T00:03:51.714Z,36.80
2023-02-09T00:06:21.777Z,37.38
2023-02-09T00:08:48.521Z,37.35
2023-02-09T00:11:45.648Z,34.58
2023-02-09T00:14:13.882Z,32.63
2023-02-09T00:16:40.986Z,34.40
2023-02-09T00:19:07.785Z,31.63
2023-02-09T00:21:34.261Z,35.05
2023-02-09T00:24:00.801Z,30.98
2023-02-09T00:26:27.691Z,31.95
2023-02-09T00:28:54.229Z,28.67
2023-02-09T00:31:20.814Z,30.85
2023-02-09T00:33:47.516Z,30.45
2023-02-09T00:36:14.543Z,30.08
2023-02-09T00:38:41.604Z,32.28
2023-02-09T00:41:08.356Z,34.35
2023-02-09T00:43:35.161Z,36.75
2023-02-09T00:46:02.427Z,34.35
2023-02-09T00:48:29.731Z,40.75
2023-02-09T00:50:56.259Z,37.33
2023-02-09T00:53:23.706Z,39.05
2023-02-09T00:55:51.388Z,41.47
2023-02-09T00:58:18.560Z,37.10
2023-02-09T01:00:45.623Z,38.10
2023-02-09T01:03:12.384Z,41.53
2023-02-09T01:05:40.370Z,36.75
2023-02-09T01:08:07.237Z,34.05
2023-02-09T01:10:33.788Z,39.58
2023-02-09T01:13:00.272Z,37.83
2023-02-09T01:15:26.844Z,39.70
2023-02-09T01:17:53.255Z,38.03
2023-02-09T01:20:19.791Z,37.28
2023-02-09T01:22:46.242Z,37.90
2023-02-09T01:25:12.719Z,34.88
2023-02-09T01:27:39.197Z,35.25
2023-02-09T01:30:06.130Z,34.17
2023-02-09T01:32:32.650Z,34.33
2023-02-09T01:34:59.129Z,31.20
2023-02-09T01:37:25.619Z,31.90
2023-02-09T01:39:52.111Z,35.83
2023-02-09T01:42:20.701Z,38.63
2023-02-09T01:44:47.084Z,33.10
2023-02-09T01:47:15.655Z,33.45
2023-02-09T01:49:44.208Z,33.15
2023-02-09T01:52:15.500Z,32.83
2023-02-09T01:54:45.901Z,37.28
2023-02-09T01:57:17.118Z,35.83
2023-02-09T01:59:46.824Z,31.50
2023-02-09T02:02:14.701Z,34.60
2023-02-09T02:04:44.660Z,35.53
2023-02-09T02:07:25.205Z,33.38
2023-02-09T02:09:52.309Z,31.80
2023-02-09T02:12:19.084Z,35.08
2023-02-09T02:14:45.714Z,35.13
2023-02-09T02:17:24.148Z,32.65
2023-02-09T02:20:18.688Z,33.50
2023-02-09T02:23:06.586Z,32.20
2023-02-09T02:25:39.045Z,30.55
2023-02-09T02:28:14.640Z,37.05
2023-02-09T02:31:16.632Z,32.58
2023-02-09T02:34:00.550Z,31.52
2023-02-09T02:36:31.562Z,35.33
2023-02-09T02:39:16.370Z,36.95
2023-02-09T02:42:20.075Z,36.03
2023-02-09T02:44:59.265Z,29.80
2023-02-09T02:47:28.672Z,33.42
2023-02-09T02:50:00.444Z,31.13
2023-02-09T02:52:26.947Z,31.27
2023-02-09T02:55:02.529Z,31.13
2023-02-09T02:57:33.281Z,27.42
2023-02-09T03:00:26.245Z,33.58
2023-02-09T03:02:55.644Z,28.50
2023-02-09T03:05:24.811Z,29.80
2023-02-09T03:07:51.697Z,29.80
2023-02-09T03:10:34.940Z,26.92
2023-02-09T03:13:04.408Z,33.00
2023-02-09T03:19:34.762Z,27.80
2023-02-09T03:22:29.028Z,28.17
2023-02-09T03:25:06.299Z,31.77
2023-02-09T03:27:41.431Z,28.15
2023-02-09T03:30:11.453Z,25.35
2023-02-09T03:32:40.289Z,31.63
2023-02-09T03:35:08.396Z,26.95
2023-02-09T03:37:34.870Z,26.98
2023-02-09T03:40:02.048Z,26.98
2023-02-09T03:42:28.522Z,36.30
2023-02-09T03:44:54.960Z,33.20
2023-02-09T03:47:21.485Z,28.85
2023-02-09T03:49:47.918Z,25.02
2023-02-09T03:52:16.360Z,28.80
2023-02-09T03:54:42.989Z,28.40
2023-02-09T03:57:10.349Z,31.02
2023-02-09T03:59:37.778Z,30.90
2023-02-09T04:02:07.259Z,29.35
2023-02-09T04:04:34.253Z,31.15
2023-02-09T04:07:00.838Z,27.20
2023-02-09T04:09:28.024Z,33.00
2023-02-09T04:11:55.839Z,29.15
2023-02-09T04:14:22.659Z,30.05
2023-02-09T04:16:49.214Z,32.17
2023-02-09T04:19:16.536Z,29.40
2023-02-09T04:21:43.348Z,32.10
2023-02-09T04:24:10.532Z,34.33
2023-02-09T04:26:37.128Z,34.88
2023-02-09T04:29:04.713Z,28.48
2023-02-09T04:31:31.791Z,31.25
2023-02-09T04:33:58.439Z,30.83
2023-02-09T04:36:24.950Z,30.83
2023-02-09T04:38:51.484Z,30.73
2023-02-09T04:41:18.230Z,27.98
2023-02-09T04:43:46.368Z,35.35
2023-02-09T04:46:14.918Z,35.05
2023-02-09T04:48:41.735Z,32.33
2023-02-09T04:51:08.377Z,31.48
2023-02-09T04:53:34.916Z,30.75
2023-02-09T04:56:01.565Z,30.45
2023-02-09T04:58:46.432Z,29.23
2023-02-09T05:01:19.082Z,40.65
2023-02-09T05:03:45.705Z,37.28
2023-02-09T05:06:12.208Z,33.83
2023-02-09T05:08:38.747Z,42.13
2023-02-09T05:11:05.522Z,36.70
2023-02-09T05:13:32.018Z,33.13
2023-02-09T05:15:58.496Z,34.10
2023-02-09T05:18:25.689Z,30.85
2023-02-09T05:20:52.566Z,36.92
2023-02-09T05:23:19.235Z,38.50
2023-02-09T05:25:46.155Z,47.15
2023-02-09T05:28:12.938Z,49.60
2023-02-09T05:30:39.657Z,85.75
2023-02-09T05:33:06.240Z,64.50
2023-02-09T05:35:32.845Z,64.63
2023-02-09T05:37:59.303Z,64.70
2023-02-09T05:40:25.768Z,56.65
2023-02-09T05:42:52.287Z,57.33
2023-02-09T05:45:18.935Z,51.38
2023-02-09T05:47:46.586Z,46.28
2023-02-09T05:50:13.098Z,48.28
2023-02-09T05:52:39.559Z,48.08
2023-02-09T05:55:06.383Z,41.05
2023-02-09T05:57:32.843Z,41.28
2023-02-09T05:59:59.286Z,39.00
2023-02-09T06:02:25.875Z,33.65
2023-02-09T06:04:52.343Z,39.78
2023-02-09T06:07:18.796Z,40.30
2023-02-09T06:09:45.254Z,38.45
2023-02-09T06:12:11.768Z,43.85
2023-02-09T06:14:38.242Z,40.08
2023-02-09T06:17:04.752Z,39.05
2023-02-09T06:19:31.257Z,41.05
2023-02-09T06:21:57.745Z,37.88
2023-02-09T06:24:24.264Z,42.70
2023-02-09T06:26:50.747Z,40.55
2023-02-09T06:29:17.210Z,44.40
2023-02-09T06:31:43.808Z,39.53
2023-02-09T06:34:10.483Z,39.30
2023-02-09T06:36:37.008Z,35.92
2023-02-09T06:39:08.026Z,37.85
2023-02-09T06:41:34.502Z,35.63
2023-02-09T06:44:01.023Z,38.45
2023-02-09T06:46:28.641Z,40.08
2023-02-09T06:48:55.396Z,36.83
2023-02-09T06:51:22.268Z,42.85
2023-02-09T06:53:49.145Z,39.60
2023-02-09T06:56:16.076Z,39.85
2023-02-09T06:58:42.603Z,33.58
2023-02-09T07:01:12.071Z,32.50
2023-02-09T07:03:38.834Z,37.90
2023-02-09T07:06:08.616Z,35.42
2023-02-09T07:08:36.134Z,40.55
2023-02-09T07:11:08.191Z,38.95
2023-02-09T07:13:34.988Z,39.47
2023-02-09T07:16:02.724Z,38.28
2023-02-09T07:18:29.277Z,35.60
2023-02-09T07:21:01.401Z,40.13
2023-02-09T07:23:28.336Z,36.55
2023-02-09T07:25:54.890Z,36.00
2023-02-09T07:28:22.116Z,38.03
2023-02-09T07:30:50.205Z,36.05
2023-02-09T07:33:17.033Z,47.22
2023-02-09T07:35:43.516Z,42.35
2023-02-09T07:38:10.334Z,40.63
2023-02-09T07:40:38.577Z,37.67
2023-02-09T07:43:06.587Z,41.13
2023-02-09T07:45:33.734Z,45.38
2023-02-09T07:48:00.372Z,41.15
2023-02-09T07:50:27.195Z,49.22
2023-02-09T07:52:54.916Z,42.45
2023-02-09T07:55:21.730Z,38.80
2023-02-09T07:57:48.189Z,40.88
2023-02-09T08:00:15.445Z,40.80
2023-02-09T08:02:43.395Z,34.85
2023-02-09T08:05:21.361Z,38.10
2023-02-09T08:07:48.251Z,38.10
2023-02-09T08:10:17.103Z,33.58
2023-02-09T08:13:02.608Z,24.02
2023-02-09T08:18:02.339Z,32.00
2023-02-09T08:20:31.041Z,31.73
2023-02-09T08:23:05.647Z,31.15
2023-02-09T08:25:32.851Z,41.22
2023-02-09T08:28:01.213Z,31.83
2023-02-09T08:30:27.714Z,36.85
2023-02-09T08:32:54.332Z,41.67
2023-02-09T08:35:20.843Z,37.15
2023-02-09T08:37:47.417Z,23.65
2023-02-09T08:40:15.210Z,43.33
2023-02-09T08:42:41.833Z,15.23
2023-02-09T08:45:08.952Z,13.63
2023-02-09T08:47:35.480Z,18.80
2023-02-09T08:50:02.132Z,29.70
2023-02-09T08:52:28.706Z,28.77
2023-02-09T08:54:55.179Z,12.88
2023-02-09T08:57:23.116Z,21.05
2023-02-09T08:59:50.699Z,21.13
2023-02-09T09:02:17.476Z,7.75
2023-02-09T09:04:44.086Z,35.50
2023-02-09T09:07:10.521Z,38.60
2023-02-09T09:09:36.948Z,32.05
2023-02-09T09:12:03.588Z,26.42
2023-02-09T09:14:31.451Z,31.15
2023-02-09T09:16:58.640Z,29.55
2023-02-09T09:19:26.294Z,29.60
2023-02-09T09:21:52.848Z,42.90
2023-02-09T09:24:19.898Z,33.78
2023-02-09T09:26:46.402Z,28.80
2023-02-09T09:29:13.063Z,26.05
2023-02-09T09:31:39.587Z,39.78
2023-02-09T09:34:06.179Z,34.63
2023-02-09T09:36:32.703Z,14.63
2023-02-09T09:38:59.181Z,27.50
2023-02-09T09:41:31.602Z,31.17
2023-02-09T09:43:59.395Z,31.20
2023-02-09T09:46:36.552Z,16.33
2023-02-09T09:49:04.642Z,39.35
2023-02-09T09:51:33.901Z,25.27
2023-02-09T09:54:03.043Z,20.92
2023-02-09T09:56:31.343Z,35.38
2023-02-09T09:58:59.499Z,32.35
2023-02-09T10:01:28.691Z,15.45
2023-02-09T10:04:00.911Z,35.45
2023-02-09T10:06:30.539Z,33.17
2023-02-09T10:09:07.963Z,27.88
2023-02-09T10:11:51.819Z,15.88
2023-02-09T10:14:18.472Z,22.30
2023-02-09T10:16:45.087Z,22.27
2023-02-09T10:19:27.372Z,22.63
2023-02-09T10:21:54.792Z,23.08
2023-02-09T10:24:34.483Z,16.30
2023-02-09T10:27:17.452Z,25.30
2023-02-09T10:29:44.017Z,13.43
2023-02-09T10:32:15.185Z,17.77
2023-02-09T10:34:45.205Z,16.40
2023-02-09T10:37:15.431Z,18.98
2023-02-09T10:39:42.391Z,26.23
2023-02-09T10:42:18.045Z,21.50
2023-02-09T10:44:49.578Z,22.50
2023-02-09T10:47:19.102Z,16.67
2023-02-09T10:50:10.651Z,19.67
2023-02-09T10:52:40.775Z,13.45
2023-02-09T10:55:35.069Z,19.00
2023-02-09T10:58:11.814Z,23.92
2023-02-09T11:00:41.264Z,16.33
2023-02-09T11:03:21.450Z,25.38
2023-02-09T11:06:17.202Z,13.10
2023-02-09T11:08:48.692Z,20.33
2023-02-09T11:11:30.524Z,24.75
2023-02-09T11:13:57.584Z,14.15
2023-02-09T11:16:55.554Z,25.65
2023-02-09T11:19:40.074Z,15.27
2023-02-09T11:22:11.889Z,22.83
2023-02-09T11:24:58.677Z,18.25
2023-02-09T11:27:27.995Z,27.27
2023-02-09T11:30:19.348Z,18.75
2023-02-09T11:32:49.069Z,23.80
2023-02-09T11:35:20.051Z,22.48
2023-02-09T11:37:56.099Z,17.40
2023-02-09T11:40:41.394Z,26.40
2023-02-09T11:43:18.817Z,20.92
2023-02-09T11:45:47.055Z,23.63
2023-02-09T11:48:32.016Z,12.90
2023-02-09T11:51:09.819Z,18.70
2023-02-09T11:54:00.658Z,19.77
2023-02-09T11:56:28.738Z,13.45
2023-02-09T11:59:03.810Z,10.52
2023-02-09T12:02:04.445Z,15.30
2023-02-09T12:04:59.091Z,11.98
2023-02-09T12:07:41.979Z,15.50
2023-02-09T12:10:28.760Z,23.25
2023-02-09T12:13:19.740Z,12.40
2023-02-09T12:16:00.589Z,16.90
2023-02-09T12:18:30.523Z,24.63
2023-02-09T12:20:59.854Z,15.20
2023-02-09T12:23:31.656Z,13.07
2023-02-09T12:26:16.468Z,17.35
2023-02-09T12:28:44.141Z,25.77
2023-02-09T12:31:23.404Z,22.40
2023-02-09T12:34:02.547Z,15.52
2023-02-09T12:36:34.190Z,6.57
2023-02-09T12:39:05.546Z,10.60
2023-02-09T12:41:35.032Z,17.35
2023-02-09T12:44:10.674Z,27.55
2023-02-09T12:46:46.808Z,25.88
2023-02-09T12:49:17.690Z,11.13
2023-02-09T12:51:55.426Z,13.63
2023-02-09T12:54:51.541Z,16.40
2023-02-09T12:59:59.075Z,21.25
2023-02-09T13:02:52.967Z,21.58
2023-02-09T13:05:33.688Z,19.88
2023-02-09T13:08:21.876Z,20.38
2023-02-09T13:10:51.020Z,21.65
2023-02-09T13:13:35.615Z,14.48
2023-02-09T13:16:04.933Z,27.48
2023-02-09T13:18:34.192Z,16.83
2023-02-09T13:21:22.596Z,21.77
2023-02-09T13:24:09.240Z,20.70
2023-02-09T13:26:46.852Z,18.60
2023-02-09T13:29:21.335Z,19.63
2023-02-09T13:31:50.043Z,16.00
2023-02-09T13:34:42.703Z,17.48
2023-02-09T13:37:21.275Z,15.10
2023-02-09T13:39:55.945Z,21.58
2023-02-09T13:42:25.040Z,10.18
2023-02-09T13:44:57.129Z,11.60
2023-02-09T13:47:25.119Z,20.02
2023-02-09T13:50:02.208Z,13.48
2023-02-09T13:52:38.970Z,11.00
2023-02-09T13:55:32.082Z,20.58
2023-02-09T13:58:03.275Z,24.25
2023-02-09T14:00:42.471Z,26.42
2023-02-09T14:03:21.870Z,18.58
2023-02-09T14:05:51.169Z,25.27
2023-02-09T14:08:20.075Z,20.17
2023-02-09T14:10:55.311Z,17.13
2023-02-09T14:16:09.649Z,18.80
2023-02-09T14:18:43.140Z,22.55
2023-02-09T14:21:15.444Z,6.13
2023-02-09T14:23:47.810Z,25.55
2023-02-09T14:26:14.225Z,28.67
2023-02-09T14:28:49.107Z,19.77
2023-02-09T14:31:21.567Z,14.57
2023-02-09T14:33:50.333Z,13.60
2023-02-09T14:36:29.156Z,23.55
2023-02-09T14:39:21.002Z,15.65
2023-02-09T14:41:57.250Z,22.40
2023-02-09T14:44:24.306Z,36.03
2023-02-09T14:46:53.618Z,28.80
2023-02-09T14:49:21.561Z,16.75
2023-02-09T14:51:50.316Z,18.02
2023-02-09T14:54:26.273Z,26.63
2023-02-09T14:56:54.779Z,9.38
2023-02-09T14:59:22.129Z,29.38
2023-02-09T15:01:51.411Z,11.10
2023-02-09T15:04:18.325Z,32.00
2023-02-09T15:06:53.927Z,22.90
2023-02-09T15:09:36.798Z,15.20
2023-02-09T15:12:05.802Z,22.27
2023-02-09T15:14:42.582Z,17.48
2023-02-09T15:17:17.398Z,21.45
2023-02-09T15:19:44.858Z,20.50
2023-02-09T15:22:16.017Z,25.88
2023-02-09T15:24:44.567Z,18.48
2023-02-09T15:27:34.876Z,22.48
2023-02-09T15:30:04.578Z,13.43
2023-02-09T15:32:31.571Z,19.15
2023-02-09T15:34:58.087Z,25.02
2023-02-09T15:37:28.428Z,9.40
2023-02-09T15:39:59.525Z,17.65
2023-02-09T15:42:44.622Z,12.00
2023-02-09T15:45:41.069Z,5.78
2023-02-09T15:48:08.957Z,22.60
2023-02-09T15:50:38.849Z,25.92
2023-02-09T15:53:14.702Z,29.00
2023-02-09T15:55:42.780Z,18.70
2023-02-09T15:58:15.051Z,22.40
2023-02-09T16:00:41.815Z,25.17
2023-02-09T16:03:19.967Z,17.50
2023-02-09T16:05:49.755Z,28.73
2023-02-09T16:08:28.190Z,15.13
2023-02-09T16:10:54.717Z,20.75
2023-02-09T16:13:21.353Z,29.20
2023-02-09T16:15:49.077Z,25.25
2023-02-09T16:18:15.737Z,30.98
2023-02-09T16:20:49.755Z,25.27
2023-02-09T16:23:21.324Z,35.03
2023-02-09T16:25:50.417Z,23.67
2023-02-09T16:28:17.845Z,17.70
2023-02-09T16:30:56.688Z,27.02
2023-02-09T16:33:25.228Z,10.57
2023-02-09T16:35:57.228Z,29.80
2023-02-09T16:38:25.560Z,33.03
2023-02-09T16:40:54.471Z,31.40
2023-02-09T16:43:22.219Z,18.98
2023-02-09T16:46:02.400Z,24.85
2023-02-09T16:48:32.543Z,31.42
2023-02-09T16:50:59.279Z,22.52
2023-02-09T16:53:27.042Z,11.73
2023-02-09T16:55:53.739Z,30.50
2023-02-09T16:58:20.332Z,26.98
2023-02-09T17:00:46.889Z,38.53
2023-02-09T17:03:30.253Z,51.28
2023-02-09T17:05:57.804Z,42.15
2023-02-09T17:08:27.726Z,33.97
2023-02-09T17:10:56.098Z,33.28
2023-02-09T17:13:23.073Z,36.08
2023-02-09T17:15:54.944Z,32.97
2023-02-09T17:18:40.798Z,27.95
2023-02-09T17:21:12.297Z,30.50
2023-02-09T17:23:38.739Z,32.45
2023-02-09T17:26:05.289Z,30.15
2023-02-09T17:28:31.789Z,28.00
2023-02-09T17:31:01.682Z,29.40
2023-02-09T17:33:31.973Z,19.65
2023-02-09T17:38:46.768Z,33.45
2023-02-09T17:41:22.461Z,28.67
2023-02-09T17:43:52.425Z,25.20
2023-02-09T17:46:19.640Z,22.08
2023-02-09T17:48:47.549Z,30.63
2023-02-09T17:51:23.334Z,23.33
2023-02-09T17:53:50.028Z,15.25
2023-02-09T17:56:16.845Z,13.32
2023-02-09T17:58:44.461Z,29.02
2023-02-09T18:01:41.435Z,5.68
2023-02-09T18:04:16.793Z,30.73
2023-02-09T18:06:43.503Z,28.77
2023-02-09T18:09:12.453Z,26.48
2023-02-09T18:11:46.458Z,16.38
2023-02-09T18:14:14.347Z,13.70
2023-02-09T18:16:42.519Z,26.80
2023-02-09T18:19:10.446Z,31.45
2023-02-09T18:21:39.269Z,9.57
2023-02-09T18:24:06.377Z,30.73
2023-02-09T18:26:33.901Z,16.77
2023-02-09T18:29:00.372Z,30.58
2023-02-09T18:31:26.870Z,29.15
2023-02-09T18:33:54.110Z,30.83
2023-02-09T18:36:20.720Z,25.10
2023-02-09T18:38:48.431Z,14.80
2023-02-09T18:41:14.980Z,16.23
2023-02-09T18:43:41.441Z,33.33
2023-02-09T18:46:08.013Z,21.33
2023-02-09T18:48:34.661Z,14.63
2023-02-09T18:51:01.134Z,29.55
2023-02-09T18:53:27.693Z,35.35
2023-02-09T18:55:54.143Z,23.33
2023-02-09T18:58:20.647Z,23.30
2023-02-09T19:00:47.139Z,35.05
2023-02-09T19:03:13.958Z,15.77
2023-02-09T19:05:40.873Z,32.38
2023-02-09T19:08:07.445Z,21.45
2023-02-09T19:10:35.991Z,19.40
2023-02-09T19:13:03.883Z,19.42
2023-02-09T19:15:32.770Z,35.08
2023-02-09T19:18:00.159Z,33.90
2023-02-09T19:20:29.052Z,39.90
2023-02-09T19:22:56.413Z,21.05
2023-02-09T19:25:25.548Z,13.63
2023-02-09T19:27:52.745Z,17.48
2023-02-09T19:30:24.838Z,26.77
2023-02-09T19:32:55.601Z,16.23
2023-02-09T19:35:22.845Z,33.40
2023-02-09T19:37:53.818Z,17.70
2023-02-09T19:40:27.528Z,45.85
2023-02-09T19:42:55.399Z,36.90
2023-02-09T19:45:22.239Z,43.38
2023-02-09T19:47:48.784Z,25.15
2023-02-09T19:50:16.054Z,33.65
2023-02-09T19:52:45.712Z,40.60
2023-02-09T19:55:12.836Z,39.40
2023-02-09T19:57:39.353Z,5.55
2023-02-09T20:00:06.618Z,34.45
2023-02-09T20:02:33.099Z,37.85
2023-02-09T20:04:59.546Z,11.18
2023-02-09T20:07:26.090Z,25.02
2023-02-09T20:09:52.924Z,25.92
2023-02-09T20:12:21.618Z,23.80
2023-02-09T20:14:48.553Z,43.35
2023-02-09T20:17:15.028Z,24.55
2023-02-09T20:19:41.573Z,16.30
2023-02-09T20:22:07.978Z,16.48
2023-02-09T20:24:34.533Z,46.97
2023-02-09T20:27:01.065Z,36.95
2023-02-09T20:29:27.572Z,35.05
2023-02-09T20:31:54.172Z,43.30
2023-02-09T20:34:20.753Z,29.40
2023-02-09T20:36:51.180Z,22.73
2023-02-09T20:39:17.870Z,45.67
2023-02-09T20:42:07.228Z,46.53
2023-02-09T20:44:53.059Z,44.83
2023-02-09T20:47:19.674Z,51.92
2023-02-09T20:49:46.345Z,16.55
2023-02-09T20:52:13.066Z,38.47
2023-02-09T20:54:39.696Z,19.17
2023-02-09T20:57:06.253Z,45.60
2023-02-09T20:59:34.026Z,33.47
2023-02-09T21:02:01.057Z,34.70
2023-02-09T21:04:29.930Z,16.40
2023-02-09T21:06:57.692Z,43.88
2023-02-09T21:09:26.518Z,28.63
2023-02-09T21:11:53.966Z,44.97
2023-02-09T21:14:32.335Z,40.67
2023-02-09T21:17:05.715Z,70.93
2023-02-09T21:19:34.043Z,45.35
2023-02-09T21:22:00.721Z,12.98
2023-02-09T21:24:27.229Z,50.15
2023-02-09T21:26:53.774Z,26.20
2023-02-09T21:29:20.270Z,16.90
2023-02-09T21:31:46.757Z,43.30
2023-02-09T21:34:16.667Z,40.22
2023-02-09T21:36:43.573Z,38.38
2023-02-09T21:39:10.146Z,44.47
2023-02-09T21:41:55.357Z,50.88
2023-02-09T21:44:21.896Z,58.78
2023-02-09T21:46:49.525Z,14.60
2023-02-09T21:49:16.281Z,52.63
2023-02-09T21:51:43.117Z,47.25
2023-02-09T21:54:14.417Z,50.85
2023-02-09T21:56:40.925Z,53.13
2023-02-09T21:59:07.660Z,55.13
2023-02-09T22:01:34.503Z,48.10
2023-02-09T22:04:01.384Z,47.72
2023-02-09T22:06:30.019Z,51.72
2023-02-09T22:08:56.639Z,53.65
2023-02-09T22:11:23.137Z,54.13
2023-02-09T22:13:49.664Z,49.90
2023-02-09T22:16:21.451Z,49.15
2023-02-09T22:18:48.284Z,28.25
2023-02-09T22:21:14.767Z,50.78
2023-02-09T22:23:41.253Z,6.45
2023-02-09T22:26:07.991Z,46.10
2023-02-09T22:28:36.512Z,34.55
2023-02-09T22:31:08.930Z,61.80
2023-02-09T22:33:35.978Z,39.55
2023-02-09T22:36:11.862Z,18.27
2023-02-09T22:38:38.756Z,45.95
2023-02-09T22:41:21.198Z,46.30
2023-02-09T22:44:02.308Z,54.92
2023-02-09T22:46:31.697Z,29.70
2023-02-09T22:49:00.796Z,53.35
2023-02-09T22:51:30.311Z,33.63
2023-02-09T22:53:58.058Z,52.50
2023-02-09T22:56:25.588Z,41.80
2023-02-09T22:58:56.275Z,56.95
2023-02-09T23:01:23.211Z,52.30
2023-02-09T23:03:50.265Z,58.20
2023-02-09T23:06:19.617Z,52.45
2023-02-09T23:08:46.306Z,53.08
2023-02-09T23:11:17.098Z,53.40
2023-02-09T23:13:44.455Z,50.65
2023-02-09T23:16:16.300Z,50.83
2023-02-09T23:18:47.618Z,56.13
2023-02-09T23:21:15.735Z,54.55
2023-02-09T23:23:42.353Z,54.45
2023-02-09T23:26:09.261Z,58.97
2023-02-09T23:28:35.779Z,49.55
2023-02-09T23:31:06.273Z,54.53
2023-02-09T23:33:34.296Z,53.83
2023-02-09T23:36:09.612Z,55.15
2023-02-09T23:41:14.833Z,55.25
2023-02-09T23:43:41.750Z,55.75
2023-02-09T23:46:12.046Z,45.67
2023-02-09T23:48:38.666Z,56.67
2023-02-09T23:51:11.756Z,58.75
2023-02-09T23:53:38.231Z,49.22
2023-02-09T23:56:05.461Z,48.50
2023-02-09T23:58:38.351Z,53.75
